Flight Track Log - Related Links

Times and Time Zones

All times are in EDT time to prevent confusion due to time zone crossing. See the N241GA flight status page for this flight to view local times or setup timezone preferences in your user account.

Time Position Orientation Groundspeed Altitude Reporting Facility
EDT Latitude Longitude Course Direction KTS MPH feet Rate Location/Type
Tue 02:13:37 PM 39.3500 -85.2833 311° West 136 157 2,600  Level Cincinnati TRACON
Tue 02:14:43 PM 39.3833 -85.3333 311° West 150 173 2,900 242 Climbing Cincinnati TRACON
Tue 02:15:16 PM 39.3947 -85.3453 321° Northwest 153 176 3,000 522 Climbing Chicago Center
Tue 02:16:15 PM 39.4269 -85.3867 315° West 157 181 3,700 694 Climbing Indianapolis Center
Tue 02:17:17 PM 39.4556 -85.4264 313° West 155 178 4,400 634 Climbing Indianapolis Center
Tue 02:18:18 PM 39.4883 -85.4783 309° West 155 178 5,000 634 Climbing Indianapolis Center
Tue 02:19:20 PM 39.5136 -85.5225 307° West 155 178 5,700 774 Climbing Indianapolis Center
Tue 02:20:22 PM 39.5397 -85.5547 316° Northwest 138 159 6,600 823 Climbing Indianapolis Center
Tue 02:21:24 PM 39.5714 -85.5808 328° Northwest 134 154 7,400 732 Climbing Indianapolis Center
Tue 02:22:25 PM 39.5989 -85.6100 321° Northwest 132 152 8,100 293 Climbing Indianapolis Center
Tue 02:23:27 PM 39.6286 -85.6506 314° West 153 176 8,000 -48 Descending Indianapolis Center
Tue 02:24:29 PM 39.6586 -85.6967 310° West 165 190 8,000  Level Indianapolis Center
Tue 02:25:31 PM 39.7031 -85.7389 324° Northwest 165 190 8,000  Level Indianapolis Center
Tue 02:26:32 PM 39.7353 -85.7803 315° West 164 189 8,000  Level Indianapolis Center
Tue 02:27:34 PM 39.7647 -85.8258 310° West 165 190 8,000  Level Indianapolis Center
Tue 02:28:36 PM 39.7964 -85.8694 313° West 166 191 8,000  Level Indianapolis Center
Tue 02:29:38 PM 39.8294 -85.9108 316° Northwest 167 192 8,000  Level Indianapolis Center
Tue 02:30:39 PM 39.8706 -85.9583 318° Northwest 166 191 8,000  Level Indianapolis Center
Tue 02:31:41 PM 39.9067 -85.9956 322° Northwest 166 191 8,000  Level Indianapolis Center
Tue 02:32:43 PM 39.9467 -86.0253 330° Northwest 167 192 8,000  Level Indianapolis Center
Tue 02:33:45 PM 39.9703 -86.0761 301° West 166 191 8,000  Level Indianapolis Center
Tue 02:34:46 PM 39.9914 -86.1281 298° West 165 190 8,000  Level Indianapolis Center
Tue 02:35:48 PM 40.0083 -86.1825 292° West 164 189 8,000  Level Indianapolis Center
Tue 02:36:50 PM 40.0275 -86.2478 291° West 163 188 8,000  Level Indianapolis Center
Tue 02:37:52 PM 40.0672 -86.2839 325° Northwest 172 198 8,000  Level Indianapolis Center
Tue 02:38:53 PM 40.1064 -86.3156 328° Northwest 170 196 8,000  Level Indianapolis Center
Tue 02:39:55 PM 40.1461 -86.3486 328° Northwest 170 196 8,000  Level Indianapolis Center
Tue 02:40:57 PM 40.1886 -86.3797 331° Northwest 173 199 8,000  Level Indianapolis Center
Tue 02:41:59 PM 40.2306 -86.4075 333° Northwest 172 198 8,000  Level Indianapolis Center
Tue 02:43:01 PM 40.2764 -86.4511 324° Northwest 170 196 8,000  Level Indianapolis Center
Tue 02:44:02 PM 40.3136 -86.4889 322° Northwest 170 196 8,000  Level Indianapolis Center
Tue 02:45:04 PM 40.3458 -86.5303 316° Northwest 166 191 8,000  Level Indianapolis Center
Tue 02:46:18 PM 40.3825 -86.5847 311° West 165 190 8,000  Level Chicago Center
Tue 02:47:15 PM 40.4139 -86.6358 309° West 163 188 8,000  Level Chicago Center
Tue 02:48:16 PM 40.4436 -86.6761 314° West 162 186 8,000  Level Chicago Center
Tue 02:49:17 PM 40.4753 -86.7217 312° West 165 190 8,000  Level Chicago Center
Tue 02:50:17 PM 40.5072 -86.7647 314° West 165 190 8,000  Level Chicago Center
Tue 02:51:18 PM 40.5386 -86.8133 310° West 165 190 8,000  Level Chicago Center
Tue 02:52:19 PM 40.5683 -86.8564 312° West 166 191 8,000  Level Chicago Center
Tue 02:53:33 PM 40.6025 -86.9042 313° West 166 191 8,000  Level Chicago Center
Tue 02:54:35 PM 40.6383 -86.9589 311° West 167 192 8,000  Level Chicago Center
Tue 02:55:37 PM 40.6675 -87.0019 312° West 161 185 8,000  Level Chicago Center
Tue 02:56:39 PM 40.6933 -87.0511 305° West 163 188 8,000  Level Chicago Center
Tue 02:57:41 PM 40.7219 -87.0964 310° West 161 185 8,000  Level Chicago Center
Tue 02:58:43 PM 40.7592 -87.1328 323° Northwest 165 190 8,000  Level Chicago Center
Tue 02:59:47 PM 40.8078 -87.1692 330° Northwest 168 193 8,000  Level Chicago Center
Tue 03:00:49 PM 40.8381 -87.2128 313° West 165 190 8,000  Level Chicago Center
Tue 03:01:52 PM 40.8619 -87.2653 301° West 165 190 8,000  Level Chicago Center
Tue 03:02:54 PM 40.8931 -87.3086 314° West 163 188 8,000  Level Chicago Center
Tue 03:03:56 PM 40.9233 -87.3539 312° West 165 190 8,000  Level Chicago Center
Tue 03:04:58 PM 40.9589 -87.4097 310° West 166 191 8,000 -290 Level Chicago Center
Tue 03:06:00 PM 40.9908 -87.4556 313° West 169 194 7,400 -435 Descending Chicago Center
Tue 03:07:02 PM 41.0225 -87.5033 311° West 172 198 7,100 -387 Descending Chicago Center
Tue 03:08:04 PM 41.0528 -87.5500 311° West 171 197 6,600 -484 Descending Chicago Center
Tue 03:09:06 PM 41.0822 -87.6008 308° West 173 199 6,100 -532 Descending Chicago Center
Tue 03:10:08 PM 41.1186 -87.6592 310° West 172 198 5,500 -581 Descending Chicago Center
Tue 03:11:10 PM 41.1503 -87.7075 311° West 173 199 4,900 -581 Descending Chicago Center
Tue 03:12:12 PM 41.1825 -87.7553 312° West 174 200 4,300 -484 Descending Chicago Center
Tue 03:13:14 PM 41.2131 -87.8025 311° West 173 199 3,900 -192 Descending Chicago Center
Tue 03:14:17 PM 41.2428 -87.8500 310° West 171 197 3,900  Level Chicago Center
Tue 03:15:19 PM 41.2775 -87.9056 310° West 166 191 3,900  Level Chicago Center
Tue 03:16:21 PM 41.3081 -87.9528 311° West 167 192 3,900  Level Chicago Center
Tue 03:17:23 PM 41.3383 -87.9992 311° West 167 192 3,900  Level Chicago Center
Tue 03:18:25 PM 41.3678 -88.0453 310° West 165 190 3,900  Level Chicago Center
Tue 03:19:27 PM 41.3983 -88.0911 312° West 163 188 3,900  Level Chicago Center
Tue 03:20:29 PM 41.4292 -88.1361 312° West 162 186 3,900  Level Chicago Center
Tue 03:21:31 PM 41.4606 -88.1811 313° West 165 190 3,900 48 Level Chicago Center
Tue 03:22:33 PM 41.4994 -88.2136 328° Northwest 169 194 4,000  Climbing Chicago Center
Tue 03:23:35 PM 41.5444 -88.2594 323° Northwest 168 193 3,900 -48 Descending Chicago Center
Tue 03:24:37 PM 41.5811 -88.2944 324° Northwest 165 190 3,900 -144 Level Chicago Center
Tue 03:25:40 PM 41.6186 -88.3294 325° Northwest 164 189 3,600 -528 Descending Chicago Center
Tue 03:26:42 PM 41.6600 -88.3628 329° Northwest 170 196 2,800 -677 Descending Chicago Center
Tue 03:27:44 PM 41.7067 -88.3819 343° North 174 200 2,200 -532 Descending Chicago Center
Tue 03:28:46 PM 41.7492 -88.4058 337° Northwest 154 177 1,700 -484 Descending Chicago Center
Tue 03:29:48 PM 41.7714 -88.4358 315° West 129 148 1,200 -387 Descending Chicago Center
Tue 03:30:50 PM 41.7714 -88.4725 270° West 120 138 900 -290 Descending Chicago Center

Login

Don't have an account? Register now (free) for customized features, flight alerts, and more!